Time;durP1;ratioP1;P1;durP2;ratioP2;P2;SDS_P1;SDS_P2;PMS_P1;PMS_P2;Temp;Humidity;BMP_temperature;BMP_pressure;BME280_temperature;BME280_humidity;BME280_pressure;Samples;Min_cycle;Max_cycle;Signal;HPM_P1;HPM_P2
2023/11/06 00:00:04;;;;;;;14.30;13.40;;;8.40;99.90;;;;;;4874866;29;20202;-77
2023/11/06 00:02:35;;;;;;;14.27;13.27;;;8.40;99.90;;;;;;4867616;29;20817;-77
2023/11/06 00:05:04;;;;;;;14.07;13.23;;;8.30;99.90;;;;;;4865657;29;20209;-78
2023/11/06 00:07:31;;;;;;;13.10;12.20;;;8.30;99.90;;;;;;4866974;29;20234;-78
2023/11/06 00:09:58;;;;;;;12.90;12.10;;;8.30;99.90;;;;;;4867510;29;20409;-77
2023/11/06 00:12:26;;;;;;;12.67;11.90;;;8.20;99.90;;;;;;4866169;29;20241;-77
2023/11/06 00:14:53;;;;;;;12.80;11.90;;;8.10;99.90;;;;;;4867360;29;20229;-78
2023/11/06 00:17:20;;;;;;;12.50;11.70;;;8.00;99.90;;;;;;4867420;29;20778;-76
2023/11/06 00:19:48;;;;;;;13.27;12.30;;;8.00;99.90;;;;;;4873908;29;20206;-77
2023/11/06 00:22:16;;;;;;;13.90;13.00;;;7.90;99.90;;;;;;4869349;29;20221;-78
2023/11/06 00:24:43;;;;;;;13.50;12.70;;;7.90;99.90;;;;;;4871613;29;20250;-77
2023/11/06 00:27:10;;;;;;;14.00;13.10;;;7.80;99.90;;;;;;4874319;29;20836;-78
2023/11/06 00:29:37;;;;;;;13.90;13.10;;;7.70;99.90;;;;;;4872497;29;20254;-77
2023/11/06 00:32:04;;;;;;;13.73;12.80;;;7.70;99.90;;;;;;4872545;29;20205;-78
2023/11/06 00:34:31;;;;;;;13.70;12.80;;;7.70;99.90;;;;;;4869850;29;20766;-77
2023/11/06 00:36:59;;;;;;;13.93;12.93;;;7.70;99.90;;;;;;4873286;29;20240;-77
2023/11/06 00:39:27;;;;;;;13.30;12.50;;;7.70;99.90;;;;;;4869466;29;20223;-77
2023/11/06 00:41:54;;;;;;;13.47;12.67;;;7.80;99.90;;;;;;4882112;29;20225;-77
2023/11/06 00:44:20;;;;;;;13.63;12.90;;;7.80;99.90;;;;;;4868642;29;20202;-78
2023/11/06 00:46:47;;;;;;;13.37;12.57;;;7.80;99.90;;;;;;4870132;29;20232;-77
2023/11/06 00:49:14;;;;;;;13.47;12.70;;;7.80;99.90;;;;;;4868623;29;20202;-78
2023/11/06 00:51:41;;;;;;;13.83;12.80;;;7.90;99.90;;;;;;4867919;29;20296;-77
2023/11/06 00:54:09;;;;;;;13.37;12.57;;;7.90;99.90;;;;;;4892389;29;20208;-77
2023/11/06 00:56:36;;;;;;;13.00;12.30;;;8.00;99.90;;;;;;4878415;29;20713;-77
2023/11/06 00:59:03;;;;;;;13.00;12.30;;;8.00;99.90;;;;;;4874675;29;20209;-77
2023/11/06 01:01:30;;;;;;;13.00;12.30;;;8.10;99.90;;;;;;4875759;29;20226;-78
2023/11/06 01:03:57;;;;;;;12.93;12.23;;;8.00;99.90;;;;;;4870059;29;20245;-78
2023/11/06 01:06:24;;;;;;;12.80;12.00;;;8.00;99.90;;;;;;4869491;29;20225;-78
2023/11/06 01:08:53;;;;;;;13.47;12.57;;;8.00;99.90;;;;;;4868916;29;20206;-78
2023/11/06 01:11:21;;;;;;;13.20;12.07;;;7.90;99.90;;;;;;4871384;29;20194;-77
2023/11/06 01:13:49;;;;;;;12.70;12.00;;;7.90;99.90;;;;;;4867828;29;20198;-77
2023/11/06 01:16:17;;;;;;;13.13;12.30;;;7.90;99.90;;;;;;4867754;29;20224;-77
2023/11/06 01:18:44;;;;;;;13.33;12.53;;;7.90;99.90;;;;;;4883988;29;20298;-78
2023/11/06 01:21:11;;;;;;;13.33;12.40;;;7.90;99.90;;;;;;4870804;29;20628;-78
2023/11/06 01:23:39;;;;;;;13.13;12.33;;;7.90;99.90;;;;;;4869005;29;20222;-78
2023/11/06 01:26:07;;;;;;;13.30;12.50;;;7.90;99.90;;;;;;4868717;29;20229;-76
2023/11/06 01:28:35;;;;;;;13.13;12.23;;;7.80;99.90;;;;;;4868155;29;20262;-77
2023/11/06 01:31:03;;;;;;;13.20;12.30;;;7.90;99.90;;;;;;4868184;29;20324;-78
2023/11/06 01:33:29;;;;;;;12.83;11.97;;;7.90;99.90;;;;;;4874359;29;20198;-77
2023/11/06 01:35:56;;;;;;;12.83;12.00;;;8.00;99.90;;;;;;4872113;29;20229;-77
2023/11/06 01:38:23;;;;;;;12.93;12.03;;;8.00;99.90;;;;;;4868299;29;20270;-77
2023/11/06 01:40:50;;;;;;;13.00;12.20;;;8.00;99.90;;;;;;4868677;29;20209;-77
2023/11/06 01:43:23;;;;;;;13.30;12.40;;;8.00;99.90;;;;;;4868027;29;20225;-77
2023/11/06 01:45:52;;;;;;;13.10;12.20;;;8.00;99.90;;;;;;4883076;29;20233;-77
2023/11/06 01:48:19;;;;;;;13.80;12.90;;;8.00;99.90;;;;;;4875507;29;20210;-78
2023/11/06 01:50:47;;;;;;;13.20;12.40;;;8.00;99.90;;;;;;4878889;29;20209;-78
2023/11/06 01:53:15;;;;;;;12.83;12.10;;;8.00;99.90;;;;;;4874411;29;20206;-77
2023/11/06 01:55:43;;;;;;;13.53;12.53;;;8.00;99.90;;;;;;4868268;29;20214;-77
2023/11/06 01:58:11;;;;;;;12.80;12.00;;;7.90;99.90;;;;;;4877117;29;20201;-78
2023/11/06 02:00:39;;;;;;;13.07;12.20;;;7.90;99.90;;;;;;4866479;29;21517;-77
2023/11/06 02:03:09;;;;;;;12.70;11.90;;;7.90;99.90;;;;;;4866867;29;20241;-78
2023/11/06 02:05:37;;;;;;;12.13;11.43;;;7.90;99.90;;;;;;4868679;29;20202;-78
2023/11/06 02:08:05;;;;;;;12.70;11.80;;;7.90;99.90;;;;;;4867242;29;20209;-77
2023/11/06 02:10:32;;;;;;;12.30;11.57;;;7.90;99.90;;;;;;4865949;29;20202;-77
2023/11/06 02:12:59;;;;;;;12.33;11.63;;;7.90;99.90;;;;;;4879814;29;20213;-77
2023/11/06 02:15:27;;;;;;;12.07;11.37;;;8.00;99.90;;;;;;4867240;29;20258;-77
2023/11/06 02:17:55;;;;;;;12.00;11.30;;;8.00;99.90;;;;;;4878694;29;20202;-77
2023/11/06 02:20:24;;;;;;;12.00;11.30;;;8.00;99.90;;;;;;4867165;29;20276;-77
2023/11/06 02:22:52;;;;;;;12.00;11.30;;;8.00;99.90;;;;;;4866978;29;20222;-77
2023/11/06 02:25:23;;;;;;;12.30;11.60;;;8.00;99.90;;;;;;4873676;29;20769;-77
2023/11/06 02:27:49;;;;;;;12.10;11.40;;;8.00;99.90;;;;;;4865975;29;20679;-77
2023/11/06 02:30:16;;;;;;;12.00;11.30;;;8.00;99.90;;;;;;4867611;29;20198;-77
2023/11/06 02:32:43;;;;;;;11.87;11.20;;;8.00;99.90;;;;;;4865371;29;20206;-77
2023/11/06 02:35:10;;;;;;;11.97;11.37;;;8.00;99.90;;;;;;4871724;29;20393;-77
2023/11/06 02:37:37;;;;;;;12.17;11.37;;;8.00;99.90;;;;;;4866149;29;20243;-77
2023/11/06 02:40:06;;;;;;;12.07;11.37;;;8.10;99.90;;;;;;4866157;29;20741;-77
2023/11/06 02:42:36;;;;;;;12.30;11.60;;;8.10;99.90;;;;;;4865811;29;20206;-77
2023/11/06 02:45:03;;;;;;;12.43;11.70;;;8.20;99.90;;;;;;4865323;29;20263;-78
2023/11/06 02:47:31;;;;;;;12.13;11.47;;;8.20;99.90;;;;;;4865631;29;20225;-78
2023/11/06 02:49:58;;;;;;;12.10;11.50;;;8.30;99.90;;;;;;4881570;29;20213;-77
2023/11/06 02:52:25;;;;;;;11.97;11.17;;;8.20;99.90;;;;;;4865851;29;20648;-77
2023/11/06 02:54:52;;;;;;;12.00;11.27;;;8.20;99.90;;;;;;4877857;29;20205;-77
2023/11/06 02:57:19;;;;;;;11.90;11.20;;;8.20;99.90;;;;;;4867073;29;20305;-77
2023/11/06 02:59:47;;;;;;;11.80;11.20;;;8.10;99.90;;;;;;4865197;29;20202;-77
2023/11/06 03:02:14;;;;;;;12.10;11.30;;;8.10;99.90;;;;;;4866455;29;20257;-77
2023/11/06 03:04:41;;;;;;;12.10;11.30;;;8.10;99.90;;;;;;4867283;29;20591;-77
2023/11/06 03:07:09;;;;;;;12.43;11.60;;;8.20;99.90;;;;;;4874516;29;20304;-78
2023/11/06 03:09:36;;;;;;;12.10;11.43;;;8.10;99.90;;;;;;4866297;29;20204;-78
2023/11/06 03:12:03;;;;;;;11.70;11.10;;;8.10;99.90;;;;;;4866268;29;20213;-77
2023/11/06 03:14:30;;;;;;;12.20;11.47;;;8.10;99.90;;;;;;4865852;29;20225;-77
2023/11/06 03:16:59;;;;;;;12.40;11.70;;;8.10;99.90;;;;;;4881446;29;20285;-78
2023/11/06 03:19:26;;;;;;;12.33;11.43;;;8.10;99.90;;;;;;4865508;29;20248;-78
2023/11/06 03:21:53;;;;;;;12.50;11.70;;;8.00;99.90;;;;;;4864421;29;20210;-78
2023/11/06 03:24:19;;;;;;;12.77;11.87;;;8.10;99.90;;;;;;4868523;29;20229;-77
2023/11/06 03:26:46;;;;;;;12.57;11.77;;;8.10;99.90;;;;;;4865791;29;20229;-77
2023/11/06 03:29:13;;;;;;;12.70;11.90;;;8.10;99.90;;;;;;4865511;29;20210;-77
2023/11/06 03:31:40;;;;;;;11.97;11.27;;;8.20;99.90;;;;;;4866508;29;20202;-77
2023/11/06 03:34:08;;;;;;;12.93;12.20;;;8.30;99.90;;;;;;4866234;29;20608;-77
2023/11/06 03:36:41;;;;;;;12.63;11.87;;;8.40;99.90;;;;;;4869414;29;20734;-77
2023/11/06 03:39:08;;;;;;;12.20;11.30;;;8.40;99.90;;;;;;4866383;29;20224;-77
2023/11/06 03:41:59;;;;;;;11.50;10.90;;;8.50;99.90;;;;;;4870071;29;20194;-82
2023/11/06 03:44:27;;;;;;;11.60;10.90;;;8.50;99.90;;;;;;4857158;29;20224;-78
2023/11/06 03:46:54;;;;;;;11.80;11.00;;;8.40;99.90;;;;;;4867935;29;20221;-78
2023/11/06 03:49:23;;;;;;;11.90;11.17;;;8.40;99.90;;;;;;4866466;29;20637;-78
2023/11/06 03:51:50;;;;;;;11.93;11.33;;;8.40;99.90;;;;;;4868361;29;20202;-78
2023/11/06 03:54:21;;;;;;;12.30;11.50;;;8.40;99.90;;;;;;4868529;29;20197;-80
2023/11/06 03:56:59;;;;;;;12.40;11.60;;;8.40;99.90;;;;;;4870316;29;20222;-79
2023/11/06 03:59:51;;;;;;;12.10;11.30;;;8.40;99.90;;;;;;4874598;29;20201;-80
2023/11/06 04:02:40;;;;;;;12.00;11.20;;;8.30;99.90;;;;;;4875100;29;20209;-81
2023/11/06 04:05:43;;;;;;;12.40;11.70;;;8.40;99.90;;;;;;4879155;29;20753;-81
2023/11/06 04:08:49;;;;;;;12.70;12.00;;;8.30;99.90;;;;;;4872835;29;20213;-80
2023/11/06 04:15:28;;;;;;;11.03;10.43;;;8.30;99.90;;;;;;4777430;29;20223;-81
2023/11/06 04:18:12;;;;;;;11.53;10.83;;;8.30;99.90;;;;;;4863502;29;20241;-81
2023/11/06 04:20:51;;;;;;;11.50;10.73;;;8.40;99.90;;;;;;4868180;29;20233;-81
2023/11/06 04:23:18;;;;;;;10.67;10.07;;;8.50;99.90;;;;;;4868175;29;20591;-80
2023/11/06 04:25:48;;;;;;;10.90;10.30;;;8.50;99.90;;;;;;4872162;29;20277;-80
2023/11/06 04:28:15;;;;;;;11.07;10.37;;;8.50;99.90;;;;;;4870920;29;20329;-80
2023/11/06 04:30:43;;;;;;;10.70;10.00;;;8.50;99.90;;;;;;4869038;29;20202;-81
2023/11/06 04:33:10;;;;;;;11.13;10.33;;;8.50;99.90;;;;;;4868484;29;20661;-81
2023/11/06 04:35:40;;;;;;;11.00;10.37;;;8.60;99.90;;;;;;4871229;29;20671;-80
2023/11/06 04:38:38;;;;;;;11.50;10.70;;;8.60;99.90;;;;;;4868723;29;20226;-81
2023/11/06 04:41:05;;;;;;;11.10;10.40;;;8.60;99.90;;;;;;4877274;29;20594;-76
2023/11/06 04:43:32;;;;;;;11.60;10.60;;;8.60;99.90;;;;;;4881945;29;20209;-77
2023/11/06 04:45:59;;;;;;;11.63;10.93;;;8.70;99.90;;;;;;4868358;29;20263;-78
2023/11/06 04:48:26;;;;;;;11.67;10.87;;;8.80;99.90;;;;;;4864669;29;20572;-77
2023/11/06 04:50:53;;;;;;;11.07;10.47;;;8.80;99.90;;;;;;4875674;29;20278;-77
2023/11/06 04:53:20;;;;;;;11.17;10.37;;;8.80;99.90;;;;;;4871231;29;20210;-77
2023/11/06 04:55:48;;;;;;;10.87;10.13;;;8.90;99.90;;;;;;4871029;29;20236;-77
2023/11/06 04:58:15;;;;;;;10.40;9.80;;;8.90;99.90;;;;;;4868192;29;20214;-77
2023/11/06 05:00:42;;;;;;;11.37;10.60;;;8.90;99.90;;;;;;4866925;29;20206;-77
2023/11/06 05:03:09;;;;;;;10.90;10.20;;;8.90;99.90;;;;;;4873239;29;20690;-77
2023/11/06 05:05:37;;;;;;;10.80;10.20;;;9.00;99.90;;;;;;4864513;29;20226;-77
2023/11/06 05:08:04;;;;;;;11.23;10.53;;;9.00;99.90;;;;;;4864462;29;20246;-77
2023/11/06 05:10:31;;;;;;;11.30;10.70;;;9.00;99.90;;;;;;4864785;29;20213;-77
2023/11/06 05:12:59;;;;;;;11.50;10.80;;;9.00;99.90;;;;;;4883444;29;20209;-78
2023/11/06 05:15:26;;;;;;;11.83;11.07;;;9.00;99.90;;;;;;4867608;29;20611;-77
2023/11/06 05:17:53;;;;;;;11.43;10.73;;;9.00;99.90;;;;;;4870140;29;20780;-77
2023/11/06 05:20:20;;;;;;;10.80;10.10;;;9.00;99.90;;;;;;4876777;29;20210;-77
2023/11/06 05:22:47;;;;;;;11.50;10.80;;;9.00;99.90;;;;;;4865106;29;20755;-77
2023/11/06 05:25:14;;;;;;;11.07;10.37;;;9.00;99.90;;;;;;4875786;29;20221;-77
2023/11/06 05:27:41;;;;;;;11.40;10.80;;;9.00;99.90;;;;;;4865530;29;20225;-77
2023/11/06 05:30:10;;;;;;;12.20;11.40;;;9.00;99.90;;;;;;4864908;29;20551;-77
2023/11/06 05:32:37;;;;;;;11.67;11.07;;;9.00;99.90;;;;;;4865178;29;20198;-77
2023/11/06 05:35:04;;;;;;;12.00;11.40;;;9.00;99.90;;;;;;4864989;29;20209;-77
2023/11/06 05:37:31;;;;;;;11.77;11.07;;;9.00;99.90;;;;;;4864672;29;20222;-77
2023/11/06 05:39:58;;;;;;;11.87;11.20;;;9.00;99.90;;;;;;4867929;29;20259;-77
2023/11/06 05:42:25;;;;;;;11.60;11.00;;;9.00;99.90;;;;;;4865928;29;20245;-77
2023/11/06 05:44:52;;;;;;;11.83;11.10;;;9.00;99.90;;;;;;4865788;29;20274;-81
2023/11/06 05:47:20;;;;;;;11.70;11.10;;;9.00;99.90;;;;;;4878853;29;20240;-80
2023/11/06 05:49:47;;;;;;;11.60;11.00;;;9.00;99.90;;;;;;4868711;29;20206;-80
2023/11/06 05:52:14;;;;;;;11.53;10.83;;;9.00;99.90;;;;;;4883665;29;20216;-78
2023/11/06 05:54:41;;;;;;;11.73;11.10;;;9.00;99.90;;;;;;4878456;29;20225;-77
2023/11/06 05:57:08;;;;;;;11.80;11.10;;;8.90;99.90;;;;;;4882700;29;20229;-77
2023/11/06 05:59:35;;;;;;;11.53;10.83;;;8.80;99.90;;;;;;4875752;29;20254;-78
2023/11/06 06:02:01;;;;;;;11.20;10.60;;;8.70;99.90;;;;;;4865844;29;20596;-78
2023/11/06 06:04:30;;;;;;;11.10;10.40;;;8.60;99.90;;;;;;4867666;29;20220;-77
2023/11/06 06:06:58;;;;;;;12.00;11.40;;;8.50;99.90;;;;;;4874361;29;20230;-77
2023/11/06 06:09:25;;;;;;;11.23;10.63;;;8.50;99.90;;;;;;4867528;29;20206;-78
2023/11/06 06:11:52;;;;;;;12.03;11.27;;;8.60;99.90;;;;;;4866512;29;20206;-77
2023/11/06 06:14:20;;;;;;;12.07;11.17;;;8.50;99.90;;;;;;4866700;29;20209;-77
2023/11/06 06:16:49;;;;;;;11.60;10.90;;;8.40;99.90;;;;;;4869113;29;20632;-77
2023/11/06 06:19:16;;;;;;;11.60;10.90;;;8.40;99.90;;;;;;4867086;29;20638;-77
2023/11/06 06:21:44;;;;;;;11.87;10.83;;;8.40;99.90;;;;;;4866940;29;20822;-77
2023/11/06 06:24:11;;;;;;;11.30;10.70;;;8.30;99.90;;;;;;4865685;29;20222;-77
2023/11/06 06:26:38;;;;;;;11.60;10.93;;;8.30;99.90;;;;;;4869822;29;20805;-77
2023/11/06 06:29:05;;;;;;;11.43;10.83;;;8.20;99.90;;;;;;4865015;29;20218;-77
2023/11/06 06:31:32;;;;;;;12.03;11.40;;;8.20;99.90;;;;;;4863847;29;20210;-77
2023/11/06 06:33:59;;;;;;;12.73;11.83;;;8.20;99.90;;;;;;4864537;29;20206;-77
2023/11/06 06:36:26;;;;;;;11.83;11.13;;;8.10;99.90;;;;;;4868829;29;20218;-77
2023/11/06 06:38:54;;;;;;;11.83;11.10;;;8.00;99.90;;;;;;4865543;29;20616;-77
2023/11/06 06:41:21;;;;;;;11.80;11.10;;;8.00;99.90;;;;;;4864549;29;20206;-76
2023/11/06 06:43:49;;;;;;;11.70;11.00;;;8.00;99.90;;;;;;4863995;29;20209;-77
2023/11/06 06:46:16;;;;;;;11.97;11.27;;;8.00;99.90;;;;;;4866164;29;20236;-78
2023/11/06 06:48:43;;;;;;;11.53;10.73;;;8.00;99.90;;;;;;4871862;29;20206;-77
2023/11/06 06:51:09;;;;;;;11.43;10.83;;;8.00;99.90;;;;;;4864554;29;20593;-77
2023/11/06 06:53:36;;;;;;;11.77;11.00;;;8.00;99.90;;;;;;4864232;29;20210;-77
2023/11/06 06:56:05;;;;;;;11.53;10.83;;;8.00;99.90;;;;;;4871293;29;20240;-77
2023/11/06 06:58:32;;;;;;;11.90;11.20;;;8.10;99.90;;;;;;4864190;29;20209;-77
2023/11/06 07:00:59;;;;;;;11.53;10.90;;;8.10;99.90;;;;;;4865271;29;20202;-76
2023/11/06 07:03:29;;;;;;;11.27;10.57;;;8.10;99.90;;;;;;4863969;29;20252;-76
2023/11/06 07:05:56;;;;;;;11.90;11.00;;;8.10;99.90;;;;;;4871502;29;20233;-78
2023/11/06 07:08:22;;;;;;;11.63;10.93;;;8.10;99.90;;;;;;4865566;29;20292;-77
2023/11/06 07:10:49;;;;;;;11.80;11.10;;;8.10;99.90;;;;;;4863481;29;20210;-77
2023/11/06 07:13:17;;;;;;;11.80;11.00;;;8.20;99.90;;;;;;4875543;29;20206;-77
2023/11/06 07:15:44;;;;;;;11.90;11.20;;;8.20;99.90;;;;;;4864984;29;20214;-77
2023/11/06 07:18:12;;;;;;;11.33;10.63;;;8.20;99.90;;;;;;4866026;29;20363;-76
2023/11/06 07:20:39;;;;;;;11.40;10.70;;;8.40;99.90;;;;;;4863560;29;20215;-77
2023/11/06 07:23:06;;;;;;;11.00;10.40;;;8.40;99.90;;;;;;4865492;29;20288;-77
2023/11/06 07:25:33;;;;;;;11.10;10.50;;;8.50;99.90;;;;;;4864166;29;20218;-78
2023/11/06 07:28:00;;;;;;;10.97;10.27;;;8.60;99.90;;;;;;4866307;29;20202;-77
2023/11/06 07:30:28;;;;;;;11.47;10.77;;;8.60;99.90;;;;;;4865559;29;20202;-78
2023/11/06 07:32:55;;;;;;;11.37;10.67;;;8.60;99.90;;;;;;4864417;29;20217;-77
2023/11/06 07:35:22;;;;;;;11.60;11.00;;;8.70;99.90;;;;;;4864813;29;20212;-77
2023/11/06 07:37:49;;;;;;;12.10;11.20;;;8.80;99.90;;;;;;4883318;29;20754;-78
2023/11/06 07:40:16;;;;;;;11.30;10.60;;;8.90;99.90;;;;;;4869431;29;20217;-78
2023/11/06 07:42:43;;;;;;;11.40;10.60;;;9.00;99.90;;;;;;4882103;29;20215;-76
2023/11/06 07:45:10;;;;;;;11.40;10.70;;;9.10;99.90;;;;;;4867433;29;20226;-77
2023/11/06 07:47:39;;;;;;;11.33;10.63;;;9.20;99.90;;;;;;4866494;29;20221;-77
2023/11/06 07:50:06;;;;;;;11.30;10.60;;;9.20;99.90;;;;;;4872767;29;20221;-78
2023/11/06 07:52:33;;;;;;;10.90;10.20;;;9.20;99.90;;;;;;4864746;29;20640;-77
2023/11/06 07:55:01;;;;;;;10.40;9.70;;;9.20;99.90;;;;;;4866022;29;20198;-77
2023/11/06 07:57:28;;;;;;;10.77;9.97;;;9.10;99.90;;;;;;4873217;29;20286;-76
2023/11/06 07:59:55;;;;;;;11.00;10.20;;;9.00;99.90;;;;;;4864918;29;20258;-78
2023/11/06 08:02:22;;;;;;;10.67;10.00;;;9.00;99.90;;;;;;4880495;29;20789;-76
2023/11/06 08:04:50;;;;;;;10.80;10.10;;;9.00;99.90;;;;;;4871528;29;20716;-78
2023/11/06 08:07:17;;;;;;;10.87;10.17;;;9.30;99.90;;;;;;4865107;29;20285;-77
2023/11/06 08:09:44;;;;;;;10.70;10.00;;;9.50;99.90;;;;;;4866629;29;20567;-78
2023/11/06 08:12:14;;;;;;;9.77;9.07;;;9.50;99.90;;;;;;4864965;29;20692;-77
2023/11/06 08:14:41;;;;;;;5.57;5.17;;;9.50;99.90;;;;;;4874031;29;20241;-76
2023/11/06 08:17:08;;;;;;;3.77;3.40;;;9.50;99.90;;;;;;4871437;29;20230;-77
2023/11/06 08:19:39;;;;;;;4.30;4.00;;;9.50;99.90;;;;;;4864966;29;20209;-77
2023/11/06 08:22:08;;;;;;;4.70;4.30;;;9.50;99.90;;;;;;4864906;29;20218;-77
2023/11/06 08:24:35;;;;;;;4.10;3.90;;;9.60;99.90;;;;;;4865479;29;20209;-78
2023/11/06 08:27:02;;;;;;;4.00;3.80;;;9.60;99.90;;;;;;4865318;29;20289;-78
2023/11/06 08:29:29;;;;;;;4.30;3.90;;;9.70;99.90;;;;;;4866107;29;20301;-77
2023/11/06 08:31:59;;;;;;;4.43;4.20;;;9.80;99.90;;;;;;4866275;29;20232;-77
2023/11/06 08:34:26;;;;;;;5.43;5.03;;;9.80;99.90;;;;;;4865268;29;20680;-77
2023/11/06 08:36:53;;;;;;;4.90;4.60;;;9.90;99.90;;;;;;4868692;29;20221;-77
2023/11/06 08:39:21;;;;;;;6.43;5.93;;;10.00;99.90;;;;;;4868031;29;20675;-76
2023/11/06 08:41:47;;;;;;;4.07;3.77;;;10.20;99.90;;;;;;4876085;29;20259;-78
2023/11/06 08:44:14;;;;;;;8.40;8.00;;;10.40;99.90;;;;;;4868317;29;20214;-77
2023/11/06 08:46:42;;;;;;;10.20;9.60;;;10.60;99.90;;;;;;4869563;29;20708;-77
2023/11/06 08:49:08;;;;;;;10.10;9.50;;;10.70;99.90;;;;;;4873930;29;20207;-78
2023/11/06 08:51:35;;;;;;;8.53;8.03;;;10.90;99.90;;;;;;4872893;29;20212;-77
2023/11/06 08:54:02;;;;;;;5.33;5.03;;;11.00;99.90;;;;;;4869092;29;20203;-77
2023/11/06 08:56:30;;;;;;;10.83;10.10;;;11.40;99.90;;;;;;4868907;29;20220;-77
2023/11/06 08:58:59;;;;;;;10.53;9.73;;;11.50;99.90;;;;;;4868925;29;20209;-77
2023/11/06 09:01:26;;;;;;;10.20;9.60;;;11.60;99.90;;;;;;4866715;29;20634;-77
2023/11/06 09:03:53;;;;;;;10.47;9.87;;;11.70;99.90;;;;;;4876041;29;20208;-78
2023/11/06 09:06:21;;;;;;;11.23;10.43;;;11.70;99.90;;;;;;4869377;29;20228;-78
2023/11/06 09:08:48;;;;;;;10.70;10.10;;;11.80;99.90;;;;;;4867637;29;20670;-77
2023/11/06 09:11:14;;;;;;;10.53;9.93;;;11.80;99.90;;;;;;4867749;29;20230;-77
2023/11/06 09:13:44;;;;;;;10.23;9.50;;;12.00;99.90;;;;;;4867759;29;20264;-77
2023/11/06 09:16:11;;;;;;;10.50;9.80;;;12.10;99.90;;;;;;4868679;29;20257;-77
2023/11/06 09:18:39;;;;;;;10.63;10.03;;;12.10;99.90;;;;;;4867334;29;20274;-78
2023/11/06 09:21:12;;;;;;;10.53;9.93;;;12.20;99.90;;;;;;4866373;29;20215;-78
2023/11/06 09:23:38;;;;;;;9.40;8.80;;;12.20;99.90;;;;;;4881777;29;20272;-77
2023/11/06 09:26:06;;;;;;;8.23;7.70;;;12.30;99.90;;;;;;4867082;29;20289;-77
2023/11/06 09:28:32;;;;;;;9.73;9.23;;;12.40;99.90;;;;;;4881697;29;20213;-78
2023/11/06 09:31:01;;;;;;;10.33;9.63;;;12.70;99.90;;;;;;4863246;29;20237;-77
2023/11/06 09:33:27;;;;;;;3.90;3.70;;;12.70;99.90;;;;;;4864314;29;20201;-77
2023/11/06 09:35:54;;;;;;;2.50;2.40;;;12.80;99.90;;;;;;4864262;29;20273;-77
2023/11/06 09:38:21;;;;;;;2.53;2.33;;;12.80;99.90;;;;;;4863979;29;20201;-77
2023/11/06 09:40:48;;;;;;;2.60;2.40;;;12.80;99.90;;;;;;4863444;29;20210;-77
2023/11/06 09:43:16;;;;;;;9.70;9.10;;;12.90;99.90;;;;;;4862744;29;20683;-78
2023/11/06 09:45:43;;;;;;;8.60;8.10;;;12.90;99.90;;;;;;4865459;29;20588;-77
2023/11/06 09:48:18;;;;;;;7.40;7.00;;;13.20;99.90;;;;;;4866475;29;20205;-77
2023/11/06 09:50:49;;;;;;;9.13;8.63;;;13.20;99.90;;;;;;4871371;29;20591;-78
2023/11/06 09:53:16;;;;;;;9.90;9.30;;;13.20;99.90;;;;;;4875613;29;20309;-79
2023/11/06 09:55:43;;;;;;;8.68;8.18;;;13.20;99.90;;;;;;4862406;29;20546;-80
2023/11/06 09:58:11;;;;;;;7.38;6.97;;;13.20;99.90;;;;;;4869153;29;20448;-79
2023/11/06 10:00:38;;;;;;;9.10;8.60;;;13.30;99.90;;;;;;4864700;29;20245;-79
2023/11/06 10:03:18;;;;;;;9.53;9.00;;;13.20;99.90;;;;;;4863953;29;20208;-82
2023/11/06 10:06:03;;;;;;;9.23;8.73;;;13.20;99.90;;;;;;4868148;29;20227;-81
2023/11/06 10:08:50;;;;;;;9.40;8.80;;;13.20;99.90;;;;;;4867662;29;20208;-81
2023/11/06 10:11:30;;;;;;;9.47;8.97;;;13.10;99.90;;;;;;4866867;29;20205;-80
2023/11/06 10:14:00;;;;;;;9.00;8.50;;;13.00;99.90;;;;;;4868175;29;20201;-81
2023/11/06 10:16:27;;;;;;;7.47;7.07;;;12.80;99.90;;;;;;4872606;29;20222;-81
2023/11/06 10:19:12;;;;;;;9.70;9.20;;;12.60;99.90;;;;;;4867357;29;20753;-81
2023/11/06 10:21:43;;;;;;;4.00;2.93;;;12.40;99.90;;;;;;4868883;29;20216;-82
2023/11/06 10:24:13;;;;;;;8.60;8.13;;;12.20;99.90;;;;;;4872503;29;20209;-82
2023/11/06 10:26:43;;;;;;;3.00;2.90;;;12.10;99.90;;;;;;4893088;29;20282;-80
2023/11/06 10:29:15;;;;;;;9.40;8.90;;;12.10;99.90;;;;;;4870642;29;20220;-80
2023/11/06 10:31:44;;;;;;;3.23;3.03;;;12.00;99.90;;;;;;4868355;29;20778;-82
2023/11/06 10:34:37;;;;;;;5.87;5.57;;;11.90;99.90;;;;;;4875645;29;20217;-83
2023/11/06 10:37:07;;;;;;;2.50;2.40;;;11.90;99.90;;;;;;4870250;29;20232;-82
2023/11/06 10:39:34;;;;;;;7.93;7.53;;;11.90;99.90;;;;;;4869839;29;20479;-82
2023/11/06 10:42:14;;;;;;;10.17;9.57;;;12.00;99.90;;;;;;4862575;29;20797;-85
2023/11/06 10:44:57;;;;;;;9.70;9.20;;;12.10;99.90;;;;;;4872876;29;20205;-81
2023/11/06 10:47:27;;;;;;;9.93;9.43;;;12.30;99.90;;;;;;4877197;29;20230;-83
2023/11/06 10:50:03;;;;;;;9.70;9.20;;;12.50;99.90;;;;;;4869064;29;20206;-82
2023/11/06 10:52:33;;;;;;;10.20;9.60;;;12.80;99.90;;;;;;4869350;29;20205;-83
2023/11/06 10:55:02;;;;;;;9.90;9.30;;;13.00;99.90;;;;;;4876972;29;20214;-83
2023/11/06 10:57:33;;;;;;;10.10;9.50;;;13.10;99.90;;;;;;4861929;29;20218;-83
2023/11/06 11:00:01;;;;;;;9.90;9.30;;;13.20;99.90;;;;;;4877367;29;20209;-84
2023/11/06 11:02:47;;;;;;;9.33;8.80;;;13.20;99.90;;;;;;4873187;29;20213;-84
2023/11/06 11:05:17;;;;;;;9.43;8.90;;;13.10;99.90;;;;;;4880539;29;20270;-83
2023/11/06 11:07:47;;;;;;;9.63;9.03;;;13.10;99.90;;;;;;4864549;29;20239;-84
2023/11/06 11:10:18;;;;;;;9.18;8.68;;;13.10;99.90;;;;;;4860262;29;20452;-82
2023/11/06 11:12:46;;;;;;;9.13;8.63;;;13.00;99.90;;;;;;4861673;29;20300;-83
2023/11/06 11:15:14;;;;;;;9.43;8.93;;;13.00;99.90;;;;;;4867886;29;20237;-83
2023/11/06 11:17:56;;;;;;;9.70;9.10;;;13.10;99.90;;;;;;4872926;29;20223;-82
2023/11/06 11:20:25;;;;;;;9.70;9.20;;;13.10;99.90;;;;;;4876203;29;20546;-83
2023/11/06 11:23:07;;;;;;;9.40;8.90;;;13.00;99.90;;;;;;4869807;29;20206;-83
2023/11/06 11:25:57;;;;;;;9.90;9.40;;;13.00;99.90;;;;;;4867033;29;20296;-83
2023/11/06 11:28:25;;;;;;;9.63;9.13;;;12.90;99.90;;;;;;4881399;29;20296;-83
2023/11/06 11:30:53;;;;;;;3.55;3.33;;;12.80;99.90;;;;;;4863095;29;20465;-83
2023/11/06 11:33:54;;;;;;;9.43;8.93;;;12.80;99.90;;;;;;4867803;29;20202;-83
2023/11/06 11:36:30;;;;;;;9.40;8.90;;;12.80;99.90;;;;;;4860872;29;20779;-83
2023/11/06 11:38:58;;;;;;;9.60;9.00;;;12.70;99.90;;;;;;4868103;29;20206;-84
2023/11/06 11:41:26;;;;;;;9.57;9.03;;;12.70;99.90;;;;;;4862116;29;20198;-83
2023/11/06 11:44:05;;;;;;;9.47;8.97;;;12.70;99.90;;;;;;4863422;29;20202;-83
2023/11/06 11:46:57;;;;;;;9.50;8.90;;;12.80;99.90;;;;;;4867575;29;20293;-83
2023/11/06 11:49:44;;;;;;;9.17;8.67;;;12.80;99.90;;;;;;4868128;29;20748;-83
2023/11/06 11:52:15;;;;;;;9.50;9.00;;;12.80;99.90;;;;;;4864158;29;20213;-83
2023/11/06 11:54:43;;;;;;;9.70;9.20;;;12.90;99.90;;;;;;4871567;29;20293;-83
2023/11/06 11:57:11;;;;;;;9.90;9.40;;;13.00;99.90;;;;;;4877885;29;20311;-84
2023/11/06 11:59:40;;;;;;;9.40;8.90;;;13.00;99.90;;;;;;4868526;29;20212;-83
2023/11/06 12:02:09;;;;;;;8.93;8.47;;;13.00;99.90;;;;;;4872851;29;20206;-83
2023/11/06 12:04:36;;;;;;;8.97;8.47;;;13.10;99.90;;;;;;4875580;29;20211;-83
2023/11/06 12:07:05;;;;;;;9.20;8.70;;;13.30;99.90;;;;;;4868745;29;20307;-83
2023/11/06 12:09:51;;;;;;;2.20;2.10;;;13.50;99.90;;;;;;4868411;29;20198;-84
2023/11/06 12:12:20;;;;;;;9.40;8.80;;;13.80;99.90;;;;;;4872162;29;20273;-84
2023/11/06 12:14:48;;;;;;;9.07;8.50;;;13.90;99.90;;;;;;4870559;29;20312;-84
2023/11/06 12:17:30;;;;;;;9.57;9.07;;;14.00;99.90;;;;;;4869022;29;20222;-84
2023/11/06 12:20:00;;;;;;;9.43;8.93;;;14.10;99.90;;;;;;4879191;29;20216;-83
2023/11/06 12:22:30;;;;;;;8.97;8.47;;;14.20;99.90;;;;;;4870085;29;20597;-84
2023/11/06 12:25:03;;;;;;;8.77;8.27;;;14.20;99.90;;;;;;4865461;29;20212;-84
2023/11/06 12:27:35;;;;;;;8.47;7.97;;;14.10;99.90;;;;;;4872557;29;20237;-84
2023/11/06 12:30:07;;;;;;;8.57;8.07;;;14.10;99.90;;;;;;4867351;29;20677;-84
2023/11/06 12:32:35;;;;;;;8.73;8.23;;;14.00;99.90;;;;;;4873320;29;20239;-84
2023/11/06 12:35:14;;;;;;;8.60;8.10;;;13.80;99.90;;;;;;4864938;29;20628;-84
2023/11/06 12:37:52;;;;;;;8.80;8.30;;;13.70;99.90;;;;;;4866480;29;20593;-84
2023/11/06 12:40:22;;;;;;;8.97;8.37;;;13.50;99.90;;;;;;4863425;29;20214;-84
2023/11/06 12:42:51;;;;;;;8.43;7.83;;;13.40;99.90;;;;;;4864412;29;20211;-83
2023/11/06 12:45:34;;;;;;;8.57;8.07;;;13.30;99.90;;;;;;4865662;29;20674;-83
2023/11/06 12:48:19;;;;;;;8.83;8.33;;;13.30;99.90;;;;;;4864620;29;20787;-84
2023/11/06 12:50:59;;;;;;;8.90;8.40;;;13.20;99.90;;;;;;4867734;29;20297;-84
2023/11/06 12:53:26;;;;;;;8.67;8.17;;;13.20;99.90;;;;;;4864429;29;20209;-83
2023/11/06 12:55:54;;;;;;;8.97;8.37;;;13.30;99.90;;;;;;4870220;29;20309;-84